Startpagina
METAR-TAF:

METAR-TAF

Vliegvelden :

Aeroporto Humberto Delgado

Lissabon, Portugal

breedte: 38-46N, lengte: 009-08W, hoogte: 114 m

Actueel weer

Dit bericht is 15 minuten geleden gemaakt, om 11:30 UTC
Wind 10 kt uit het noordoosten, variërend tussen het noordnoordoosten en het oosten
Temperatuur 19°C
Vochtigheid 49%
Druk 1019 hPa
Zicht 10 km of meer
geen wolken onder 1500 m en geen cumulonimbus

METAR: LPPT 251130Z 05010KT 020V080 CAVOK 19/08 Q1019

Tijdstip: 11:45 (11:45 UTC)

Verwachting

Dit bericht is 45 minuten geleden gemaakt, om 11:00 UTC
Verwachting geldig van 25 om 12 UTC tot 26 om 18 UTC
Wind 12 kt uit het noordoosten
Zicht 10 km of meer
geen wolken onder 1500 m en geen cumulonimbus
Tijdelijke
van 25 om 12 UTC tot 25 om 16 UTC
Wind 12 kt uit het oosten

TAF: LPPT 251100Z 2512/2618 05012KT CAVOK TEMPO 2512/2516 09012KT

Waarnemingen en weersverwachtingen van meer dan 4000 vliegvelden (METAR en TAF).

De beschikbare stations zijn de gele en rode punten op de kaart.

Ga met uw muis naar het station om de naam te zien.

Klik dan om waarnemingen en weersverwachtingen te zien.

kaart wijzigen: klik op de groene knoppen met een zwart kruis om in te zoomen, op de groene knop met een streepje om uit te zoomen of op de groene pijlen voor aangrenzende kaarten.


METAR-TAF: